Seven Mile, Ohio
Current Conditions -  °F | °C
As of 11:55 AM on Saturday 25 Oct 2014 (Local Time) from KMWO Reporting Station
Overcast Overcast  
Wind Chill: 61°   Ceiling: 2300
Heat Index: 61°   Visibility: 10mi
Dew Point: 51°   Wind: 9mph
Humidity: 70%   Direction: 230°SW
Pressure: 29.98"   Gusts: NA
Location:  39.48°N, 84.55°W
Report Text: KMWO 251555Z AUTO 23008KT 10SM OVC023 16/11 A2998 RMK AO2 T01600106
Loading
Personal Weather Stations






























Interactive Weather Map
Tropical Storm Tracking
New forecast layout! Learn more

10-Day Weather Forecast

Advertisements
Track Severe Weather on mobile